Etusivu
METAR-TAF:

METAR-TAF

Lentoasemat :

Friday Harbor Airport

Friday Harbor, Washington, Yhdysvallat

Leveyspiiri: 48-31-13N, Pituuspiiri: 123-01-31W, korkeus merenpinnasta: 33 m

Tämänhetkinen sää

Tämä raportti tehtiin 47 minuuttia sitten, kello 15.53 UTC
Tuuli 3 kn idästä/kaakosta
Lämpötila 14°C
Kosteus 72%
Ilmanpaine 1007 hPa
Näkyvyys: 16.1 km
Hajanaisia pilviä 12000 ft:n korkeudessa

METAR: KFHR 191553Z AUTO 12003KT 10SM SCT120 14/09 A2975 RMK AO2 SLP073 T01440089

Aika: 09:40 (16:40 UTC)


TAF: puuttuu

Säähavainnot ja -ennusteet yli 4000 lentoasemalta (METAR- ja TAF-raportit).

Käytössä olevat sääasemat on merkitty karttaan keltaisilla ja punaisilla pisteillä.

Aseta hiiri pisteen päälle nähdäksesi sääaseman nimen.

Klikkaa sitten nähdäksesi säähavainnot ja -ennusteet.

Kartan vaihtaminen: klikkaa mustalla rastilla varustettuja vihreitä pisteitä, niin voit zoomata sisään; viivalla varustettua vihreää pistettä, niin voit zoomata ulos tai vihreitä nuolia, niin pääset viereisille kartoille.


METAR-TAF: